createdAt,value
2023-01-25T00:00:11.282Z,4.92
2023-01-25T00:02:59.582Z,4.93
2023-01-25T00:05:32.199Z,4.84
2023-01-25T00:08:00.435Z,4.42
2023-01-25T00:10:51.861Z,3.91
2023-01-25T00:13:20.264Z,3.56
2023-01-25T00:15:48.246Z,3.33
2023-01-25T00:18:34.995Z,3.11
2023-01-25T00:21:32.312Z,3.03
2023-01-25T00:24:06.135Z,3.33
2023-01-25T00:26:35.355Z,3.64
2023-01-25T00:29:04.294Z,3.88
2023-01-25T00:31:35.316Z,4.04
2023-01-25T00:34:25.445Z,4.18
2023-01-25T00:37:01.636Z,4.29
2023-01-25T00:39:29.985Z,4.37
2023-01-25T00:41:58.075Z,4.42
2023-01-25T00:44:26.624Z,4.58
2023-01-25T00:46:54.825Z,4.92
2023-01-25T00:49:25.396Z,5.14
2023-01-25T00:51:56.169Z,4.72
2023-01-25T00:54:24.419Z,4.18
2023-01-25T00:56:54.484Z,3.75
2023-01-25T00:59:24.362Z,3.42
2023-01-25T01:01:54.346Z,3.16
2023-01-25T01:04:25.919Z,3.03
2023-01-25T01:06:54.483Z,3.53
2023-01-25T01:09:23.841Z,4.09
2023-01-25T01:11:54.102Z,4.55
2023-01-25T01:14:23.547Z,4.88
2023-01-25T01:16:51.807Z,5.15
2023-01-25T01:19:20.502Z,5.44
2023-01-25T01:21:48.778Z,5.39
2023-01-25T01:24:18.104Z,4.71
2023-01-25T01:26:46.405Z,4.06
2023-01-25T01:29:16.682Z,3.52
2023-01-25T01:31:45.031Z,3.12
2023-01-25T01:34:36.081Z,2.79
2023-01-25T01:37:04.398Z,2.55
2023-01-25T01:39:32.454Z,2.52
2023-01-25T01:42:01.078Z,2.96
2023-01-25T01:44:46.816Z,3.40
2023-01-25T01:47:29.386Z,3.86
2023-01-25T01:50:17.110Z,4.24
2023-01-25T01:52:45.896Z,4.47
2023-01-25T01:55:19.492Z,4.51
2023-01-25T01:57:52.087Z,4.05
2023-01-25T02:00:28.292Z,3.52
2023-01-25T02:02:58.084Z,3.11
2023-01-25T02:06:02.937Z,2.80
2023-01-25T02:08:37.001Z,2.46
2023-01-25T02:11:05.405Z,2.22
2023-01-25T02:13:35.897Z,2.11
2023-01-25T02:16:05.168Z,2.47
2023-01-25T02:18:33.500Z,2.94
2023-01-25T02:21:02.420Z,3.28
2023-01-25T02:23:54.575Z,3.48
2023-01-25T02:26:23.571Z,3.71
2023-01-25T02:29:02.382Z,3.91
2023-01-25T02:31:34.825Z,3.63
2023-01-25T02:34:03.602Z,3.17
2023-01-25T02:36:34.202Z,2.73
2023-01-25T02:39:24.337Z,2.35
2023-01-25T02:42:11.389Z,1.99
2023-01-25T02:44:41.223Z,1.89
2023-01-25T02:47:09.620Z,2.39
2023-01-25T02:49:38.505Z,2.82
2023-01-25T02:52:09.647Z,3.12
2023-01-25T02:54:38.021Z,3.34
2023-01-25T02:57:08.143Z,3.60
2023-01-25T02:59:43.317Z,3.44
2023-01-25T03:02:11.863Z,2.91
2023-01-25T03:04:40.139Z,2.45
2023-01-25T03:07:09.352Z,2.10
2023-01-25T03:09:37.522Z,1.82
2023-01-25T03:12:06.406Z,1.69
2023-01-25T03:14:39.735Z,2.06
2023-01-25T03:17:11.028Z,2.44
2023-01-25T03:19:39.144Z,2.80
2023-01-25T03:22:07.489Z,3.11
2023-01-25T03:24:36.190Z,3.44
2023-01-25T03:27:11.118Z,3.58
2023-01-25T03:29:45.960Z,3.66
2023-01-25T03:32:17.683Z,3.74
2023-01-25T03:34:46.046Z,3.34
2023-01-25T03:37:15.203Z,2.86
2023-01-25T03:39:44.008Z,2.42
2023-01-25T03:42:12.224Z,2.04
2023-01-25T03:44:41.049Z,1.83
2023-01-25T03:47:09.365Z,2.17
2023-01-25T03:49:37.785Z,2.71
2023-01-25T03:52:10.183Z,3.20
2023-01-25T03:54:40.132Z,3.72
2023-01-25T03:57:09.488Z,4.05
2023-01-25T03:59:51.066Z,4.08
2023-01-25T04:02:19.312Z,3.57
2023-01-25T04:04:47.471Z,2.97
2023-01-25T04:07:40.574Z,2.48
2023-01-25T04:10:10.416Z,2.18
2023-01-25T04:12:41.505Z,1.94
2023-01-25T04:15:10.948Z,1.73
2023-01-25T04:17:59.911Z,1.98
2023-01-25T04:20:29.649Z,2.32
2023-01-25T04:22:58.216Z,2.62
2023-01-25T04:25:31.180Z,2.81
2023-01-25T04:27:59.578Z,2.96
2023-01-25T04:30:27.683Z,3.08
2023-01-25T04:32:56.758Z,3.24
2023-01-25T04:35:28.068Z,3.56
2023-01-25T04:37:58.753Z,3.86
2023-01-25T04:40:51.432Z,4.00
2023-01-25T04:43:21.046Z,4.07
2023-01-25T04:45:50.483Z,4.03
2023-01-25T04:48:23.665Z,3.54
2023-01-25T04:50:56.734Z,2.99
2023-01-25T04:53:44.664Z,2.51
2023-01-25T04:56:13.258Z,2.16
2023-01-25T04:59:07.822Z,2.05
2023-01-25T05:01:36.336Z,2.44
2023-01-25T05:04:06.667Z,2.85
2023-01-25T05:06:39.631Z,3.15
2023-01-25T05:09:09.694Z,3.35
2023-01-25T05:11:38.248Z,3.57
2023-01-25T05:14:14.503Z,3.82
2023-01-25T05:16:47.610Z,4.07
2023-01-25T05:19:35.539Z,3.97
2023-01-25T05:22:25.397Z,3.42
2023-01-25T05:24:54.537Z,2.89
2023-01-25T05:27:23.423Z,2.45
2023-01-25T05:29:55.016Z,2.21
2023-01-25T05:33:01.951Z,2.66
2023-01-25T05:35:30.523Z,3.10
2023-01-25T05:37:59.665Z,3.46
2023-01-25T05:40:28.131Z,3.75
2023-01-25T05:43:00.092Z,3.93
2023-01-25T05:45:30.567Z,4.08
2023-01-25T05:47:59.573Z,4.24
2023-01-25T05:50:28.115Z,4.40
2023-01-25T05:53:02.438Z,4.55
2023-01-25T05:55:31.065Z,4.49
2023-01-25T05:58:07.729Z,3.85
2023-01-25T06:00:35.909Z,3.30
2023-01-25T06:03:04.437Z,2.92
2023-01-25T06:05:35.932Z,2.59
2023-01-25T06:08:04.327Z,2.42
2023-01-25T06:10:51.413Z,2.83
2023-01-25T06:13:22.382Z,3.33
2023-01-25T06:15:57.738Z,3.72
2023-01-25T06:18:49.315Z,4.01
2023-01-25T06:21:42.124Z,4.17
2023-01-25T06:24:10.872Z,4.25
2023-01-25T06:26:39.088Z,4.15
2023-01-25T06:29:07.215Z,3.67
2023-01-25T06:31:58.576Z,3.10
2023-01-25T06:34:46.401Z,2.65
2023-01-25T06:37:23.167Z,2.37
2023-01-25T06:40:11.215Z,2.28
2023-01-25T06:42:44.396Z,2.64
2023-01-25T06:45:17.094Z,3.02
2023-01-25T06:47:46.968Z,3.31
2023-01-25T06:50:15.461Z,3.47
2023-01-25T06:52:43.503Z,3.63
2023-01-25T06:55:14.171Z,3.76
2023-01-25T06:57:49.804Z,3.90
2023-01-25T07:00:18.833Z,4.06
2023-01-25T07:03:05.891Z,4.25
2023-01-25T07:05:34.388Z,4.30
2023-01-25T07:08:22.788Z,4.35
2023-01-25T07:10:58.887Z,4.39
2023-01-25T07:13:28.619Z,4.43
2023-01-25T07:15:59.721Z,4.28
2023-01-25T07:18:47.185Z,3.75
2023-01-25T07:21:18.809Z,3.34
2023-01-25T07:23:47.466Z,3.04
2023-01-25T07:26:24.744Z,2.82
2023-01-25T07:28:53.770Z,2.61
2023-01-25T07:31:22.801Z,2.51
2023-01-25T07:33:53.315Z,2.87
2023-01-25T07:36:22.401Z,3.30
2023-01-25T07:38:57.011Z,3.51
2023-01-25T07:41:26.085Z,3.57
2023-01-25T07:43:54.712Z,3.58
2023-01-25T07:46:39.795Z,3.64
2023-01-25T07:49:07.900Z,3.72
2023-01-25T07:51:36.005Z,3.80
2023-01-25T07:54:23.240Z,3.88
2023-01-25T07:56:51.307Z,3.97
2023-01-25T07:59:19.340Z,4.08
2023-01-25T08:01:47.668Z,4.15
2023-01-25T08:04:15.689Z,4.15
2023-01-25T08:06:46.483Z,4.30
2023-01-25T08:09:22.492Z,4.54
2023-01-25T08:11:50.706Z,4.76
2023-01-25T08:14:18.770Z,4.82
2023-01-25T08:16:47.077Z,4.39
2023-01-25T08:19:33.716Z,3.77
2023-01-25T08:22:02.258Z,3.31
2023-01-25T08:24:30.660Z,2.94
2023-01-25T08:27:01.043Z,2.72
2023-01-25T08:29:29.731Z,3.01
2023-01-25T08:31:57.887Z,3.41
2023-01-25T08:34:25.976Z,3.75
2023-01-25T08:36:54.154Z,4.03
2023-01-25T08:39:22.418Z,4.22
2023-01-25T08:41:50.477Z,4.39
2023-01-25T08:44:24.315Z,4.59
2023-01-25T08:46:57.469Z,4.75
2023-01-25T08:49:27.520Z,4.86
2023-01-25T08:51:55.657Z,4.43
2023-01-25T08:54:24.830Z,3.92
2023-01-25T08:56:53.282Z,3.52
2023-01-25T08:59:44.841Z,3.13
2023-01-25T09:02:13.992Z,2.85
2023-01-25T09:04:42.215Z,2.62
2023-01-25T09:07:11.006Z,2.53
2023-01-25T09:09:44.602Z,2.90
2023-01-25T09:12:12.768Z,3.29
2023-01-25T09:14:40.788Z,3.64
2023-01-25T09:17:10.205Z,3.93
2023-01-25T09:19:38.465Z,4.20
2023-01-25T09:22:06.563Z,4.38
2023-01-25T09:24:36.993Z,4.45
2023-01-25T09:27:30.747Z,3.88
2023-01-25T09:30:16.614Z,3.34
2023-01-25T09:32:50.858Z,2.87
2023-01-25T09:35:19.347Z,2.60
2023-01-25T09:37:51.053Z,2.51
2023-01-25T09:40:22.549Z,2.95
2023-01-25T09:43:27.103Z,3.40
2023-01-25T09:46:26.572Z,3.76
2023-01-25T09:49:26.995Z,3.98
2023-01-25T09:52:27.376Z,4.17
2023-01-25T09:54:55.464Z,4.36
2023-01-25T09:57:26.523Z,4.48
2023-01-25T09:59:55.395Z,4.15
2023-01-25T10:02:34.931Z,3.71
2023-01-25T10:05:31.287Z,3.32
2023-01-25T10:08:16.340Z,3.04
2023-01-25T10:10:47.301Z,2.80
2023-01-25T10:13:19.427Z,2.73
2023-01-25T10:15:56.000Z,3.11
2023-01-25T10:18:33.684Z,3.58
2023-01-25T10:21:13.337Z,3.98
2023-01-25T10:23:56.555Z,4.40
2023-01-25T10:26:33.344Z,4.80
2023-01-25T10:29:04.988Z,5.01
2023-01-25T10:31:50.790Z,4.66
2023-01-25T10:34:31.486Z,4.24
2023-01-25T10:37:11.846Z,3.96
2023-01-25T10:39:57.520Z,3.76
2023-01-25T10:42:29.882Z,3.56
2023-01-25T10:44:57.833Z,3.39
2023-01-25T10:47:37.399Z,3.25
2023-01-25T10:50:06.035Z,3.45
2023-01-25T10:52:37.802Z,3.86
2023-01-25T10:55:17.815Z,4.25
2023-01-25T10:57:53.581Z,4.60
2023-01-25T11:00:30.681Z,4.88
2023-01-25T11:02:59.156Z,4.66
2023-01-25T11:05:35.800Z,4.38
2023-01-25T11:08:25.784Z,4.03
2023-01-25T11:10:55.683Z,3.81
2023-01-25T11:13:29.813Z,3.73
2023-01-25T11:16:01.922Z,3.63
2023-01-25T11:18:33.964Z,3.61
2023-01-25T11:21:06.722Z,3.62
2023-01-25T11:23:34.986Z,3.70
2023-01-25T11:26:15.722Z,3.81
2023-01-25T11:28:45.662Z,3.93
2023-01-25T11:31:20.434Z,4.05
2023-01-25T11:33:49.002Z,4.16
2023-01-25T11:36:22.640Z,4.28
2023-01-25T11:39:07.124Z,4.36
2023-01-25T11:42:12.601Z,4.45
2023-01-25T11:45:09.131Z,4.60
2023-01-25T11:47:53.056Z,4.73
2023-01-25T11:50:39.283Z,4.86
2023-01-25T11:53:29.247Z,4.97
2023-01-25T11:56:26.061Z,5.08
2023-01-25T11:59:37.811Z,5.22
2023-01-25T12:03:03.691Z,5.32
2023-01-25T12:05:57.090Z,5.41
2023-01-25T12:08:34.959Z,5.48
2023-01-25T12:11:12.177Z,5.57
2023-01-25T12:14:08.168Z,5.66
2023-01-25T12:17:01.952Z,5.73
2023-01-25T12:19:57.662Z,5.79
2023-01-25T12:22:45.511Z,5.83
2023-01-25T12:25:22.776Z,5.88
2023-01-25T12:28:19.698Z,5.94
2023-01-25T12:31:20.196Z,6.03
2023-01-25T12:34:03.584Z,6.12
2023-01-25T12:36:38.409Z,6.19
2023-01-25T12:39:12.726Z,6.25
2023-01-25T12:42:00.301Z,6.29
2023-01-25T12:44:37.479Z,6.33
2023-01-25T12:47:22.475Z,6.39
2023-01-25T12:50:15.192Z,6.47
2023-01-25T12:53:15.504Z,6.58
2023-01-25T12:55:44.762Z,6.69
2023-01-25T12:58:16.412Z,6.79
2023-01-25T13:00:55.581Z,6.89
2023-01-25T13:03:41.590Z,6.89
2023-01-25T13:06:25.253Z,6.90
2023-01-25T13:08:56.403Z,6.94
2023-01-25T13:11:32.345Z,6.89
2023-01-25T13:14:31.385Z,6.92
2023-01-25T13:17:28.003Z,6.94
2023-01-25T13:19:56.263Z,6.95
2023-01-25T13:23:09.894Z,6.93
2023-01-25T13:25:51.885Z,7.00
2023-01-25T13:28:41.157Z,7.07
2023-01-25T13:31:09.674Z,7.15
2023-01-25T13:33:37.980Z,7.21
2023-01-25T13:36:37.520Z,7.57
2023-01-25T13:39:24.545Z,8.39
2023-01-25T13:42:03.558Z,9.23
2023-01-25T13:44:34.525Z,9.89
2023-01-25T13:47:05.843Z,10.60
2023-01-25T13:49:42.964Z,11.29
2023-01-25T13:52:19.675Z,11.83
2023-01-25T13:54:49.474Z,12.27
2023-01-25T13:57:21.540Z,12.53
2023-01-25T14:00:14.954Z,12.67
2023-01-25T14:02:47.313Z,12.63
2023-01-25T14:05:25.766Z,12.51
2023-01-25T14:07:57.385Z,12.15
2023-01-25T14:10:28.001Z,11.64
2023-01-25T14:13:00.719Z,11.12
2023-01-25T14:15:31.118Z,10.68
2023-01-25T14:18:19.272Z,10.27
2023-01-25T14:20:50.671Z,9.87
2023-01-25T14:23:30.244Z,9.48
2023-01-25T14:25:59.327Z,9.07
2023-01-25T14:28:29.392Z,8.68
2023-01-25T14:31:01.579Z,8.29
2023-01-25T14:33:33.017Z,7.94
2023-01-25T14:36:24.378Z,7.64
2023-01-25T14:38:54.757Z,7.33
2023-01-25T14:41:36.320Z,7.07
2023-01-25T14:44:10.680Z,6.79
2023-01-25T14:46:40.560Z,6.54
2023-01-25T14:49:26.301Z,6.27
2023-01-25T14:52:02.482Z,5.91
2023-01-25T14:54:33.111Z,5.57
2023-01-25T14:57:04.388Z,5.31
2023-01-25T14:59:37.181Z,5.08
2023-01-25T15:02:46.113Z,4.85
2023-01-25T15:05:17.561Z,4.60
2023-01-25T15:07:51.357Z,4.40
2023-01-25T15:10:24.189Z,4.22
2023-01-25T15:13:15.715Z,4.04
2023-01-25T15:15:59.194Z,3.87
2023-01-25T15:19:00.005Z,3.73
2023-01-25T15:21:30.725Z,3.56
2023-01-25T15:24:06.932Z,3.45
2023-01-25T15:26:36.339Z,3.34
2023-01-25T15:29:20.729Z,3.23
2023-01-25T15:31:50.955Z,3.11
2023-01-25T15:34:25.332Z,3.03
2023-01-25T15:36:53.461Z,2.94
2023-01-25T15:39:21.889Z,2.86
2023-01-25T15:41:49.993Z,2.75
2023-01-25T15:44:20.372Z,2.67
2023-01-25T15:46:51.597Z,2.59
2023-01-25T15:49:28.043Z,2.52
2023-01-25T15:51:56.979Z,2.43
2023-01-25T15:54:25.220Z,2.35
2023-01-25T15:56:57.609Z,2.30
2023-01-25T15:59:27.125Z,2.25
2023-01-25T16:01:55.334Z,2.21
2023-01-25T16:04:25.319Z,2.17
2023-01-25T16:06:55.024Z,2.12
2023-01-25T16:09:27.265Z,2.07
2023-01-25T16:27:41.055Z,1.84
2023-01-25T16:30:18.616Z,1.81
2023-01-25T16:32:46.947Z,1.91
2023-01-25T16:35:15.086Z,2.56
2023-01-25T16:37:43.346Z,3.20
2023-01-25T16:40:23.194Z,3.65
2023-01-25T16:42:51.757Z,4.00
2023-01-25T16:45:19.941Z,4.32
2023-01-25T16:47:48.304Z,4.55
2023-01-25T16:50:20.023Z,4.67
2023-01-25T16:52:51.366Z,4.33
2023-01-25T16:55:19.592Z,3.91
2023-01-25T16:57:51.241Z,3.58
2023-01-25T17:00:20.152Z,3.31
2023-01-25T17:02:58.789Z,3.09
2023-01-25T17:05:32.747Z,2.89
2023-01-25T17:08:01.182Z,2.70
2023-01-25T17:10:34.832Z,2.53
2023-01-25T17:13:03.442Z,2.38
2023-01-25T17:15:33.720Z,2.24
2023-01-25T17:18:02.253Z,2.12
2023-01-25T17:20:30.399Z,2.02
2023-01-25T17:22:58.494Z,1.94
2023-01-25T17:25:26.807Z,1.86
2023-01-25T17:27:54.908Z,1.89
2023-01-25T17:30:23.052Z,2.41
2023-01-25T17:32:51.195Z,2.91
2023-01-25T17:35:19.447Z,3.25
2023-01-25T17:37:47.569Z,3.50
2023-01-25T17:40:15.956Z,3.71
2023-01-25T17:42:44.475Z,3.90
2023-01-25T17:45:12.734Z,4.07
2023-01-25T17:47:41.016Z,4.12
2023-01-25T17:50:10.283Z,3.79
2023-01-25T17:52:39.011Z,3.38
2023-01-25T17:55:07.628Z,3.05
2023-01-25T17:57:37.313Z,2.79
2023-01-25T18:00:06.619Z,2.57
2023-01-25T18:02:45.433Z,2.37
2023-01-25T18:05:15.751Z,2.20
2023-01-25T18:07:45.293Z,2.04
2023-01-25T18:10:13.989Z,1.92
2023-01-25T18:12:43.733Z,1.82
2023-01-25T18:15:12.446Z,1.72
2023-01-25T18:17:40.747Z,1.74
2023-01-25T18:20:10.732Z,2.20
2023-01-25T18:22:39.067Z,2.69
2023-01-25T18:25:28.428Z,3.03
2023-01-25T18:27:56.731Z,3.27
2023-01-25T18:30:44.430Z,3.47
2023-01-25T18:33:12.562Z,3.76
2023-01-25T18:35:43.394Z,4.04
2023-01-25T18:38:13.077Z,4.24
2023-01-25T18:40:43.827Z,4.29
2023-01-25T18:43:13.797Z,3.90
2023-01-25T18:45:42.834Z,3.42
2023-01-25T18:48:13.564Z,3.05
2023-01-25T18:50:42.752Z,2.76
2023-01-25T18:53:11.105Z,2.50
2023-01-25T18:55:39.468Z,2.23
2023-01-25T18:58:07.737Z,1.99
2023-01-25T19:00:36.343Z,1.81
2023-01-25T19:03:04.618Z,1.67
2023-01-25T19:05:32.882Z,1.53
2023-01-25T19:08:00.989Z,1.40
2023-01-25T19:10:29.053Z,1.36
2023-01-25T19:12:57.501Z,1.77
2023-01-25T19:15:25.678Z,2.24
2023-01-25T19:17:53.732Z,2.51
2023-01-25T19:20:22.093Z,2.67
2023-01-25T19:22:53.859Z,2.84
2023-01-25T19:25:23.003Z,2.98
2023-01-25T19:27:51.613Z,3.13
2023-01-25T19:30:19.915Z,3.24
2023-01-25T19:32:48.307Z,3.27
2023-01-25T19:35:16.401Z,3.31
2023-01-25T19:37:44.639Z,3.38
2023-01-25T19:40:13.643Z,3.15
2023-01-25T19:42:41.885Z,2.73
2023-01-25T19:45:10.814Z,2.38
2023-01-25T19:47:39.272Z,2.11
2023-01-25T19:50:08.249Z,1.87
2023-01-25T19:52:36.581Z,1.66
2023-01-25T19:55:05.436Z,1.48
2023-01-25T19:57:38.331Z,1.46
2023-01-25T20:00:07.168Z,1.89
2023-01-25T20:02:36.761Z,2.34
2023-01-25T20:05:05.254Z,2.60
2023-01-25T20:07:33.895Z,2.71
2023-01-25T20:10:02.105Z,2.74
2023-01-25T20:12:30.212Z,2.79
2023-01-25T20:14:58.700Z,2.84
2023-01-25T20:17:26.855Z,2.92
2023-01-25T20:19:54.886Z,3.02
2023-01-25T20:22:23.312Z,3.16
2023-01-25T20:24:51.430Z,3.39
2023-01-25T20:27:19.620Z,3.54
2023-01-25T20:29:49.291Z,3.15
2023-01-25T20:32:31.982Z,2.66
2023-01-25T20:35:03.734Z,2.28
2023-01-25T20:37:32.173Z,1.98
2023-01-25T20:40:00.248Z,1.71
2023-01-25T20:42:28.438Z,1.59
2023-01-25T20:44:57.008Z,2.05
2023-01-25T20:47:25.130Z,2.49
2023-01-25T20:49:53.261Z,2.74
2023-01-25T20:52:21.689Z,3.03
2023-01-25T20:54:49.966Z,3.29
2023-01-25T20:57:18.115Z,3.49
2023-01-25T20:59:46.458Z,3.70
2023-01-25T21:02:14.801Z,3.93
2023-01-25T21:04:43.198Z,4.00
2023-01-25T21:07:11.642Z,3.55
2023-01-25T21:09:42.094Z,3.05
2023-01-25T21:12:11.300Z,2.68
2023-01-25T21:14:39.445Z,2.41
2023-01-25T21:17:10.311Z,2.19
2023-01-25T21:19:38.492Z,2.02
2023-01-25T21:22:06.720Z,1.87
2023-01-25T21:24:35.264Z,1.75
2023-01-25T21:27:03.453Z,1.72
2023-01-25T21:29:31.776Z,2.15
2023-01-25T21:32:00.125Z,2.64
2023-01-25T21:34:31.023Z,3.04
2023-01-25T21:36:59.738Z,3.33
2023-01-25T21:39:27.848Z,3.35
2023-01-25T21:41:55.962Z,2.90
2023-01-25T21:44:43.253Z,2.37
2023-01-25T21:50:18.073Z,1.67
2023-01-25T21:52:46.102Z,1.59
2023-01-25T21:55:14.496Z,1.94
2023-01-25T21:57:47.254Z,2.23
2023-01-25T22:00:18.784Z,2.47
2023-01-25T22:02:46.914Z,2.61
2023-01-25T22:05:15.071Z,2.70
2023-01-25T22:07:43.312Z,2.80
2023-01-25T22:10:11.722Z,2.91
2023-01-25T22:12:40.276Z,3.06
2023-01-25T22:15:08.552Z,3.19
2023-01-25T22:17:36.819Z,3.31
2023-01-25T22:20:05.211Z,3.46
2023-01-25T22:22:33.258Z,3.59
2023-01-25T22:25:01.297Z,3.68
2023-01-25T22:27:37.570Z,3.66
2023-01-25T22:30:06.676Z,3.28
2023-01-25T22:32:34.995Z,2.87
2023-01-25T22:35:03.344Z,2.55
2023-01-25T22:37:34.846Z,2.28
2023-01-25T22:40:02.956Z,2.06
2023-01-25T22:42:31.037Z,1.88
2023-01-25T22:44:59.063Z,2.09
2023-01-25T22:47:27.106Z,2.33
2023-01-25T22:49:55.148Z,2.44
2023-01-25T22:52:23.538Z,2.60
2023-01-25T22:54:51.948Z,2.77
2023-01-25T22:57:20.048Z,2.95
2023-01-25T22:59:48.218Z,3.10
2023-01-25T23:02:16.297Z,3.19
2023-01-25T23:04:44.380Z,3.29
2023-01-25T23:07:12.984Z,3.39
2023-01-25T23:09:41.117Z,3.46
2023-01-25T23:12:09.195Z,3.55
2023-01-25T23:14:52.967Z,3.49
2023-01-25T23:17:42.469Z,3.00
2023-01-25T23:20:12.694Z,2.39
2023-01-25T23:22:41.691Z,1.97
2023-01-25T23:25:11.526Z,1.70
2023-01-25T23:27:39.687Z,1.60
2023-01-25T23:30:10.258Z,2.00
2023-01-25T23:32:38.866Z,2.46
2023-01-25T23:35:07.427Z,2.72
2023-01-25T23:37:35.473Z,2.86
2023-01-25T23:40:04.102Z,2.91
2023-01-25T23:42:32.485Z,2.89
2023-01-25T23:45:00.551Z,2.87
2023-01-25T23:47:31.263Z,2.89
2023-01-25T23:49:59.606Z,2.95
2023-01-25T23:52:27.774Z,3.06
2023-01-25T23:54:55.849Z,3.26
2023-01-25T23:57:24.344Z,3.44
2023-01-25T23:59:52.746Z,3.54
